Time;durP1;ratioP1;P1;durP2;ratioP2;P2;SDS_P1;SDS_P2;PMS_P1;PMS_P2;Temp;Humidity;BMP_temperature;BMP_pressure;BME280_temperature;BME280_humidity;BME280_pressure;Samples;Min_cycle;Max_cycle;Signal;HPM_P1;HPM_P2
2023/01/29 00:00:22;;;;;;;2.42;0.20;;;;;;;0.99;74.70;101214.69;4944719;28;20051;-74
2023/01/29 00:02:51;;;;;;;0.98;0.28;;;;;;;1.00;74.77;101221.59;4941097;28;20138;-74
2023/01/29 00:05:18;;;;;;;1.48;0.20;;;;;;;1.01;74.82;101219.91;4941106;28;20051;-73
2023/01/29 00:07:44;;;;;;;2.03;0.25;;;;;;;1.01;74.63;101220.75;4945793;28;20519;-74
2023/01/29 00:10:12;;;;;;;4.25;0.20;;;;;;;1.00;74.62;101219.03;4943797;28;20043;-74
2023/01/29 00:12:39;;;;;;;5.40;0.30;;;;;;;1.02;74.31;101222.50;4943250;28;20832;-73
2023/01/29 00:15:07;;;;;;;3.28;0.28;;;;;;;1.03;75.42;101225.97;4941980;29;20055;-73
2023/01/29 00:17:34;;;;;;;5.38;0.55;;;;;;;1.02;74.82;101230.22;4941277;29;20058;-74
2023/01/29 00:20:02;;;;;;;5.15;0.40;;;;;;;1.03;74.93;101226.81;4941516;29;20040;-73
2023/01/29 00:22:30;;;;;;;2.50;0.20;;;;;;;1.04;74.50;101227.69;4939909;28;20048;-74
2023/01/29 00:24:58;;;;;;;1.88;0.40;;;;;;;1.04;75.00;101233.69;4943106;29;20051;-74
2023/01/29 00:27:24;;;;;;;4.43;0.25;;;;;;;1.03;75.00;101226.81;4941531;29;20487;-73
2023/01/29 00:30:10;;;;;;;3.05;0.65;;;;;;;1.04;74.89;101220.84;4937841;28;20047;-74
2023/01/29 00:32:37;;;;;;;2.72;0.30;;;;;;;1.03;75.05;101219.09;4942414;28;20110;-74
2023/01/29 00:35:07;;;;;;;7.00;0.30;;;;;;;1.04;75.09;101215.69;4942635;28;20065;-76
2023/01/29 00:37:34;;;;;;;8.55;0.40;;;;;;;1.04;75.15;101225.13;4944213;28;20507;-73
2023/01/29 00:40:01;;;;;;;5.40;0.30;;;;;;;1.01;74.75;101220.75;4941616;28;20048;-73
2023/01/29 00:45:12;;;;;;;2.88;0.20;;;;;;;1.05;75.12;101230.31;4939329;29;20603;-73
2023/01/29 00:47:39;;;;;;;3.70;0.43;;;;;;;1.04;74.89;101225.97;4940526;28;20062;-74
2023/01/29 00:50:10;;;;;;;2.63;0.20;;;;;;;1.05;75.22;101221.72;4938841;28;20050;-74
2023/01/29 00:52:37;;;;;;;1.98;0.30;;;;;;;1.05;75.09;101220.03;4946180;29;20135;-74
2023/01/29 00:55:05;;;;;;;1.58;0.20;;;;;;;1.04;74.93;101225.13;4940537;28;20050;-73
2023/01/29 00:57:34;;;;;;;3.42;0.40;;;;;;;1.05;75.04;101219.13;4940821;29;20066;-74
2023/01/29 01:00:02;;;;;;;4.25;0.20;;;;;;;1.06;75.47;101223.47;4941392;28;20501;-74
2023/01/29 01:05:17;;;;;;;1.20;0.20;;;;;;;1.06;74.87;101223.47;4938357;28;20070;-73
2023/01/29 01:07:45;;;;;;;3.60;0.20;;;;;;;1.06;74.91;101218.31;4941403;28;20547;-74
2023/01/29 01:10:20;;;;;;;3.83;0.30;;;;;;;1.07;74.82;101220.06;4940150;29;20420;-73
2023/01/29 01:12:47;;;;;;;4.78;0.30;;;;;;;1.06;74.83;101213.19;4938527;28;20051;-74
2023/01/29 01:15:14;;;;;;;1.98;0.30;;;;;;;1.07;75.65;101215.78;4941665;28;20058;-74
2023/01/29 01:17:41;;;;;;;2.20;0.30;;;;;;;1.08;75.34;101214.97;4942190;29;20047;-73
2023/01/29 01:20:09;;;;;;;2.80;0.35;;;;;;;1.09;75.55;101224.41;4935545;28;20055;-73
2023/01/29 01:22:38;;;;;;;3.25;0.20;;;;;;;1.05;75.78;101207.16;4934786;28;20070;-73
2023/01/29 01:25:05;;;;;;;3.75;0.25;;;;;;;1.10;74.86;101218.44;4939966;28;20052;-73
2023/01/29 01:27:33;;;;;;;1.75;0.55;;;;;;;1.10;74.80;101215.84;4939920;28;20051;-73
2023/01/29 01:30:00;;;;;;;0.68;0.20;;;;;;;1.11;75.35;101212.47;4940874;28;20058;-73
2023/01/29 01:32:27;;;;;;;1.30;0.30;;;;;;;1.12;74.76;101214.19;4936795;28;20044;-74
2023/01/29 01:34:54;;;;;;;6.30;0.28;;;;;;;1.13;75.42;101203.06;4940306;28;20047;-73
2023/01/29 01:37:21;;;;;;;0.73;0.20;;;;;;;1.10;74.95;101197.84;4939004;28;20046;-73
2023/01/29 01:39:49;;;;;;;2.40;0.30;;;;;;;1.13;75.12;101189.34;4938982;29;20075;-74
2023/01/29 01:42:16;;;;;;;2.00;0.28;;;;;;;1.14;75.34;101185.97;4930823;28;20043;-76
2023/01/29 01:44:55;;;;;;;1.80;0.60;;;;;;;1.15;75.10;101189.41;4941440;28;20047;-74
2023/01/29 01:47:28;;;;;;;5.75;0.30;;;;;;;1.15;75.45;101186.81;4939941;28;20043;-75
2023/01/29 01:50:00;;;;;;;5.07;0.30;;;;;;;1.14;74.80;101185.97;4934538;28;20047;-75
2023/01/29 01:52:27;;;;;;;2.75;0.30;;;;;;;1.13;74.37;101179.91;4938317;28;20082;-73
2023/01/29 01:54:56;;;;;;;4.32;0.30;;;;;;;1.13;75.15;101174.78;4940266;29;20412;-73
2023/01/29 01:57:25;;;;;;;2.40;0.30;;;;;;;1.11;75.12;101176.44;4939174;29;20052;-73
2023/01/29 01:59:57;;;;;;;3.72;0.30;;;;;;;1.14;75.34;101170.53;4939775;29;20610;-74
2023/01/29 02:10:43;;;;;;;2.80;0.38;;;;;;;1.12;74.75;101157.59;4941472;28;20057;-73
2023/01/29 02:13:11;;;;;;;4.57;0.30;;;;;;;1.13;75.00;101158.47;4937549;28;20059;-73
2023/01/29 02:15:40;;;;;;;2.53;0.30;;;;;;;1.12;74.54;101147.31;4939286;28;20146;-73
2023/01/29 02:18:09;;;;;;;2.42;0.30;;;;;;;1.12;74.71;101142.16;4939959;28;20151;-74
2023/01/29 02:20:36;;;;;;;6.55;0.40;;;;;;;1.12;75.28;101131.88;4936873;28;20062;-73
2023/01/29 02:23:29;;;;;;;2.45;0.68;;;;;;;1.12;74.88;101133.56;4937746;28;20055;-73
2023/01/29 02:26:21;;;;;;;2.72;0.30;;;;;;;1.12;74.81;101121.59;4940051;28;20043;-73
2023/01/29 02:28:56;;;;;;;1.15;0.30;;;;;;;1.11;74.74;101114.72;4937598;29;20871;-73
2023/01/29 02:31:31;;;;;;;3.97;0.55;;;;;;;1.11;74.70;101109.56;4940894;28;20055;-74
2023/01/29 02:34:11;;;;;;;2.00;0.30;;;;;;;1.10;74.49;101115.50;4939419;28;20143;-73
2023/01/29 02:36:45;;;;;;;5.53;0.50;;;;;;;1.06;74.72;101120.56;4938245;28;20055;-74
2023/01/29 02:39:17;;;;;;;2.00;0.32;;;;;;;1.08;75.37;101104.34;4936969;29;20483;-73
2023/01/29 02:41:54;;;;;;;1.75;0.28;;;;;;;1.08;74.23;101106.00;4939831;29;20055;-74
2023/01/29 02:44:29;;;;;;;3.35;0.30;;;;;;;1.07;75.01;101100.00;4940246;29;20496;-73
2023/01/29 02:47:01;;;;;;;4.75;0.60;;;;;;;1.08;75.15;101095.72;4937099;28;20559;-70
2023/01/29 02:49:33;;;;;;;2.28;0.30;;;;;;;1.06;74.55;101093.13;4939585;28;20047;-70
2023/01/29 02:52:06;;;;;;;1.40;0.35;;;;;;;1.07;74.88;101082.00;4931255;29;20048;-70
2023/01/29 02:54:43;;;;;;;4.72;0.40;;;;;;;1.06;74.87;101077.69;4935556;28;20055;-70
2023/01/29 02:57:24;;;;;;;3.17;0.35;;;;;;;1.08;74.46;101077.72;4936645;29;20628;-70
2023/01/29 02:59:55;;;;;;;6.18;0.30;;;;;;;1.07;74.31;101071.72;4938200;28;20051;-71
2023/01/29 03:02:30;;;;;;;3.42;0.20;;;;;;;1.05;74.69;101063.09;4937706;29;20054;-70
2023/01/29 03:05:02;;;;;;;2.63;0.40;;;;;;;1.08;75.14;101070.88;4938726;28;20047;-70
2023/01/29 03:07:41;;;;;;;4.78;0.30;;;;;;;1.08;74.42;101067.44;4939431;28;20061;-70
2023/01/29 03:10:15;;;;;;;4.53;0.30;;;;;;;1.07;74.14;101066.56;4939674;28;20043;-70
2023/01/29 03:12:46;;;;;;;1.52;0.30;;;;;;;1.03;74.61;101058.75;4938197;29;20070;-70
2023/01/29 03:15:23;;;;;;;2.70;0.40;;;;;;;1.07;75.07;101063.13;4935114;28;20066;-71
2023/01/29 03:17:55;;;;;;;5.45;0.40;;;;;;;1.07;74.83;101055.41;4940823;28;20047;-71
2023/01/29 03:20:28;;;;;;;2.50;0.30;;;;;;;1.05;75.06;101045.09;4938051;28;20043;-70
2023/01/29 03:23:01;;;;;;;5.50;0.38;;;;;;;1.05;74.85;101047.66;4936815;28;20048;-72
2023/01/29 03:33:58;;;;;;;3.20;1.08;;;;;;;1.01;74.43;101035.53;4944078;28;20065;-74
2023/01/29 03:36:36;;;;;;;;;;;;;;;1.00;75.23;101035.53;4938719;28;20477;-74
2023/01/29 03:39:04;;;;;;;2.47;0.40;;;;;;;0.98;74.60;101043.19;4939524;29;20394;-74
2023/01/29 03:41:34;;;;;;;1.95;0.28;;;;;;;0.98;75.04;101045.75;4936898;28;20055;-74
2023/01/29 03:44:10;;;;;;;3.28;0.75;;;;;;;0.95;74.61;101044.81;4938976;28;20051;-74
2023/01/29 03:46:42;;;;;;;3.45;0.30;;;;;;;0.96;74.80;101042.28;4937231;29;20056;-71
2023/01/29 03:49:15;;;;;;;1.58;0.40;;;;;;;0.95;74.68;101040.53;4937388;29;20509;-70
2023/01/29 03:51:53;;;;;;;8.55;0.50;;;;;;;0.94;74.72;101036.25;4936495;29;20425;-70
2023/01/29 03:54:26;;;;;;;4.68;0.35;;;;;;;0.92;74.38;101026.75;4938649;28;20056;-70
2023/01/29 03:57:00;;;;;;;2.10;0.30;;;;;;;0.91;74.25;101023.28;4937128;29;20555;-70
2023/01/29 03:59:37;;;;;;;4.47;0.50;;;;;;;0.92;73.99;101030.19;4935760;29;20047;-71
2023/01/29 04:02:10;;;;;;;2.83;0.80;;;;;;;0.90;74.82;101034.41;4935165;29;20508;-70
2023/01/29 04:04:40;;;;;;;3.22;0.35;;;;;;;0.88;74.82;101028.34;4942134;29;20412;-70
2023/01/29 04:07:12;;;;;;;2.30;0.40;;;;;;;0.89;75.17;101025.81;4937085;29;20040;-70
2023/01/29 04:09:46;;;;;;;4.50;0.40;;;;;;;0.87;74.21;101021.47;4941346;28;20401;-70
2023/01/29 04:12:18;;;;;;;6.28;0.40;;;;;;;0.87;74.79;101026.63;4942624;29;20103;-70
2023/01/29 04:14:47;;;;;;;4.03;0.40;;;;;;;0.85;74.90;101021.44;4942148;29;20063;-71
2023/01/29 04:17:20;;;;;;;3.25;0.43;;;;;;;0.83;74.71;101014.53;4940107;29;20043;-70
2023/01/29 04:19:47;;;;;;;3.92;0.45;;;;;;;0.85;75.35;101012.84;4939565;29;20131;-71
2023/01/29 04:22:19;;;;;;;2.47;0.60;;;;;;;0.86;74.43;101014.59;4944107;29;20456;-70
2023/01/29 04:24:47;;;;;;;2.95;0.50;;;;;;;0.86;74.66;101017.16;4939960;29;20051;-70
2023/01/29 04:27:27;;;;;;;2.10;0.68;;;;;;;0.86;75.17;101019.75;4940254;28;20108;-70
2023/01/29 04:30:23;;;;;;;1.45;0.32;;;;;;;0.87;75.12;101016.31;4940432;29;20421;-70
2023/01/29 04:33:03;;;;;;;2.30;0.70;;;;;;;0.87;74.68;101006.91;4932179;28;20097;-70
2023/01/29 04:35:32;;;;;;;2.22;0.55;;;;;;;0.87;74.40;101006.03;4943128;29;20066;-71
2023/01/29 04:38:09;;;;;;;1.75;0.40;;;;;;;0.87;74.88;100991.47;4938064;29;20044;-70
2023/01/29 04:40:46;;;;;;;3.78;0.32;;;;;;;0.88;74.89;100994.91;4940069;29;20055;-70
2023/01/29 04:43:18;;;;;;;3.22;0.35;;;;;;;0.88;74.81;100989.75;4936605;29;20055;-70
2023/01/29 04:45:53;;;;;;;2.88;0.50;;;;;;;0.88;75.27;100987.19;4941282;29;20595;-69
2023/01/29 04:48:25;;;;;;;4.50;0.50;;;;;;;0.80;75.67;100971.59;4942161;29;20051;-70
2023/01/29 04:51:04;;;;;;;1.67;0.30;;;;;;;0.89;75.13;100988.97;4939782;29;20054;-70
2023/01/29 04:53:43;;;;;;;5.60;0.50;;;;;;;0.90;74.72;100981.25;4941678;29;20047;-70
2023/01/29 04:56:19;;;;;;;4.45;0.40;;;;;;;0.89;74.95;100974.38;4939430;29;20611;-71
2023/01/29 04:58:47;;;;;;;;;;;;;;;0.92;74.66;100968.44;4940560;29;20047;-70
2023/01/29 05:01:19;;;;;;;5.15;0.40;;;;;;;0.87;74.51;100954.59;4938819;28;19934;-70
2023/01/29 05:03:51;;;;;;;1.45;0.40;;;;;;;0.81;74.94;100946.75;4940542;29;20047;-70
2023/01/29 05:06:20;;;;;;;7.80;2.13;;;;;;;0.92;75.28;100958.16;4942381;29;20049;-70
2023/01/29 05:08:49;;;;;;;4.28;0.40;;;;;;;0.92;74.92;100942.72;4937010;29;20051;-70
2023/01/29 05:11:18;;;;;;;2.95;0.47;;;;;;;0.93;74.88;100943.59;4938605;28;20503;-70
2023/01/29 05:13:47;;;;;;;2.35;0.40;;;;;;;0.94;75.15;100935.03;4938961;29;20157;-71
2023/01/29 05:16:19;;;;;;;4.47;0.40;;;;;;;0.96;74.46;100925.66;4941104;29;20430;-70
2023/01/29 05:18:48;;;;;;;7.30;1.00;;;;;;;0.96;75.21;100911.09;4938524;29;20048;-70
2023/01/29 05:21:15;;;;;;;2.92;0.40;;;;;;;0.97;74.58;100910.28;4935261;29;20763;-71
2023/01/29 05:23:51;;;;;;;5.05;0.50;;;;;;;0.97;75.26;100901.66;4940208;29;20047;-70
2023/01/29 05:29:03;;;;;;;2.37;0.40;;;;;;;0.94;74.38;100874.19;4937235;29;20151;-70
2023/01/29 05:31:30;;;;;;;4.07;1.30;;;;;;;0.97;74.62;100874.25;4937312;28;20066;-70
2023/01/29 05:33:58;;;;;;;6.47;0.70;;;;;;;0.98;74.76;100869.97;4940801;28;20446;-70
2023/01/29 05:36:26;;;;;;;2.47;0.65;;;;;;;0.99;74.73;100874.28;4939702;29;20055;-70
2023/01/29 05:38:53;;;;;;;6.03;0.63;;;;;;;0.99;74.29;100867.44;4938459;28;20055;-70
2023/01/29 05:41:19;;;;;;;3.53;0.60;;;;;;;0.99;75.21;100872.56;4941108;28;20077;-70
2023/01/29 05:43:46;;;;;;;1.48;0.30;;;;;;;0.99;75.12;100859.72;4940930;29;20050;-70
2023/01/29 05:46:13;;;;;;;2.92;0.40;;;;;;;1.00;74.80;100851.19;4938959;28;20079;-70
2023/01/29 05:48:40;;;;;;;4.30;0.50;;;;;;;1.00;74.70;100843.47;4941238;28;20553;-70
2023/01/29 05:51:08;;;;;;;6.43;0.50;;;;;;;1.01;74.49;100845.19;4935880;28;20051;-70
2023/01/29 05:53:35;;;;;;;1.50;0.50;;;;;;;1.02;75.25;100846.06;4936992;28;20153;-70
2023/01/29 05:56:03;;;;;;;3.85;0.85;;;;;;;1.02;75.42;100840.91;4939059;29;20047;-70
2023/01/29 05:58:30;;;;;;;5.35;0.60;;;;;;;1.01;75.25;100829.75;4937022;29;20055;-70
2023/01/29 06:00:57;;;;;;;3.33;0.88;;;;;;;1.02;74.59;100831.47;4939465;28;20405;-70
2023/01/29 06:03:24;;;;;;;4.03;0.50;;;;;;;1.03;74.86;100822.94;4942391;29;20416;-71
2023/01/29 06:05:51;;;;;;;2.33;0.50;;;;;;;1.03;75.20;100810.09;4939534;29;20051;-70
2023/01/29 06:08:19;;;;;;;5.85;0.50;;;;;;;1.05;75.14;100812.69;4940925;29;20050;-70
2023/01/29 06:10:46;;;;;;;5.75;0.40;;;;;;;1.04;75.17;100814.38;4937879;29;20523;-70
2023/01/29 06:13:13;;;;;;;5.93;1.15;;;;;;;1.05;74.96;100811.00;4938786;29;20051;-70
2023/01/29 06:15:40;;;;;;;3.75;0.65;;;;;;;1.04;75.23;100809.25;4938794;29;20062;-70
2023/01/29 06:18:07;;;;;;;2.08;0.63;;;;;;;1.06;75.28;100822.16;4939302;29;20124;-70
2023/01/29 06:20:34;;;;;;;3.80;0.52;;;;;;;1.06;75.30;100815.28;4937484;29;20047;-71
2023/01/29 06:23:01;;;;;;;1.42;0.47;;;;;;;1.07;75.54;100805.88;4940390;29;20055;-70
2023/01/29 06:25:29;;;;;;;3.97;0.60;;;;;;;1.07;74.71;100811.00;4941965;28;20043;-70
2023/01/29 06:27:56;;;;;;;4.22;0.60;;;;;;;1.07;75.16;100818.72;4939471;29;20051;-70
2023/01/29 06:30:23;;;;;;;4.20;0.82;;;;;;;1.07;75.16;100817.03;4937747;28;20058;-70
2023/01/29 06:32:50;;;;;;;4.75;0.68;;;;;;;1.00;75.21;100822.88;4938662;29;20051;-70
2023/01/29 06:35:17;;;;;;;6.60;1.65;;;;;;;1.08;74.92;100833.31;4937088;29;20061;-70
2023/01/29 06:37:44;;;;;;;6.05;0.80;;;;;;;1.07;74.41;100832.47;4937614;29;20062;-70
2023/01/29 06:40:12;;;;;;;2.58;0.50;;;;;;;1.07;75.28;100829.88;4940833;29;20052;-70
2023/01/29 06:42:40;;;;;;;5.00;1.10;;;;;;;1.08;75.08;100820.44;4935010;29;20044;-71
2023/01/29 06:45:08;;;;;;;4.63;0.60;;;;;;;1.07;75.70;100811.88;4934566;29;20054;-70
2023/01/29 06:47:35;;;;;;;7.45;1.27;;;;;;;1.07;74.76;100804.16;4933841;29;20428;-70
2023/01/29 06:50:02;;;;;;;6.50;0.50;;;;;;;1.08;74.95;100805.91;4930981;28;20051;-70
2023/01/29 06:52:29;;;;;;;5.20;0.65;;;;;;;1.08;75.51;100798.19;4935773;29;20043;-70
2023/01/29 06:54:56;;;;;;;2.42;0.60;;;;;;;1.06;74.82;100789.56;4932461;29;20047;-70
2023/01/29 06:57:23;;;;;;;1.73;0.55;;;;;;;1.07;74.78;100791.28;4934381;28;20049;-70
2023/01/29 06:59:52;;;;;;;3.05;0.68;;;;;;;1.08;75.22;100798.19;4937022;29;20065;-70
2023/01/29 07:02:18;;;;;;;3.97;0.77;;;;;;;1.07;75.18;100793.88;4936058;29;20051;-70
2023/01/29 07:04:45;;;;;;;9.55;2.33;;;;;;;1.08;75.08;100782.75;4934704;29;20492;-70
2023/01/29 07:07:12;;;;;;;7.35;0.60;;;;;;;1.09;75.34;100771.63;4936042;29;20059;-70
2023/01/29 07:09:40;;;;;;;7.45;0.88;;;;;;;1.09;75.46;100756.19;4936416;29;20043;-71
2023/01/29 07:12:08;;;;;;;2.85;0.80;;;;;;;1.05;74.99;100748.38;4935433;29;20467;-70
2023/01/29 07:14:35;;;;;;;3.55;0.70;;;;;;;1.09;75.49;100745.91;4932556;29;20048;-70
2023/01/29 07:17:03;;;;;;;6.72;0.80;;;;;;;1.09;74.99;100743.31;4934836;29;20048;-71
2023/01/29 07:19:30;;;;;;;4.20;0.63;;;;;;;1.10;74.78;100752.75;4934790;29;20054;-70
2023/01/29 07:22:01;;;;;;;1.42;0.65;;;;;;;1.09;74.97;100745.91;4934821;29;20051;-70
2023/01/29 07:24:27;;;;;;;3.30;0.50;;;;;;;1.10;75.29;100739.03;4923545;29;20098;-70
2023/01/29 07:26:54;;;;;;;3.78;0.70;;;;;;;1.05;74.73;100728.69;4936907;29;20045;-70
2023/01/29 07:29:21;;;;;;;3.28;0.50;;;;;;;1.08;75.28;100728.75;4936308;29;20043;-70
2023/01/29 07:31:48;;;;;;;3.78;0.70;;;;;;;1.10;74.85;100727.03;4940341;29;20043;-70
2023/01/29 07:34:16;;;;;;;5.25;0.73;;;;;;;1.09;74.97;100724.47;4940209;29;20520;-71
2023/01/29 07:36:43;;;;;;;5.00;0.70;;;;;;;1.10;75.18;100716.75;4939571;29;20051;-70
2023/01/29 07:39:10;;;;;;;4.20;1.13;;;;;;;1.09;74.86;100709.88;4938791;29;20408;-70
2023/01/29 07:41:37;;;;;;;1.20;0.40;;;;;;;1.09;74.74;100714.16;4937797;29;20409;-70
2023/01/29 07:44:04;;;;;;;2.78;0.93;;;;;;;1.09;75.35;100706.44;4941080;29;20580;-70
2023/01/29 07:46:31;;;;;;;2.40;0.90;;;;;;;1.09;75.31;100702.16;4940920;28;20050;-70
2023/01/29 07:48:58;;;;;;;4.80;0.70;;;;;;;1.09;75.10;100706.44;4941438;28;20057;-70
2023/01/29 07:51:27;;;;;;;2.03;1.00;;;;;;;1.08;75.01;100700.44;4941510;28;20054;-71
2023/01/29 07:53:53;;;;;;;2.55;0.70;;;;;;;1.08;75.03;100691.84;4944619;28;20051;-70
2023/01/29 07:56:20;;;;;;;4.10;0.60;;;;;;;1.07;75.15;100690.97;4943547;28;20051;-70
2023/01/29 07:58:47;;;;;;;4.95;0.80;;;;;;;1.06;74.61;100686.69;4941961;28;20130;-70
2023/01/29 08:01:14;;;;;;;3.72;0.50;;;;;;;1.06;75.26;100686.69;4942673;28;20054;-70
2023/01/29 08:03:41;;;;;;;5.18;0.60;;;;;;;1.04;74.73;100680.63;4945963;29;20055;-70
2023/01/29 08:06:08;;;;;;;5.70;1.13;;;;;;;1.02;75.41;100666.84;4941025;28;20043;-70
2023/01/29 08:08:36;;;;;;;2.70;0.70;;;;;;;1.07;75.37;100665.25;4942321;28;20051;-70
2023/01/29 08:11:04;;;;;;;7.05;4.68;;;;;;;1.00;75.27;100641.97;4943833;29;20051;-70
2023/01/29 08:13:31;;;;;;;4.57;0.80;;;;;;;1.07;75.19;100660.09;4938068;28;20059;-70
2023/01/29 08:16:00;;;;;;;3.50;0.90;;;;;;;1.08;75.04;100645.53;4943823;29;20062;-70
2023/01/29 08:18:28;;;;;;;2.45;0.70;;;;;;;1.07;75.28;100654.97;4941423;28;20098;-70
2023/01/29 08:21:00;;;;;;;1.90;0.90;;;;;;;1.06;75.02;100637.81;4944408;29;20043;-69
2023/01/29 08:23:27;;;;;;;8.65;0.60;;;;;;;1.09;75.01;100642.13;4940652;28;20047;-70
2023/01/29 08:25:55;;;;;;;3.40;0.50;;;;;;;1.09;75.41;100631.84;4940498;28;20058;-70
2023/01/29 08:28:22;;;;;;;2.03;0.70;;;;;;;1.10;75.81;100629.28;4937902;28;20043;-70
2023/01/29 08:30:49;;;;;;;6.10;0.60;;;;;;;1.11;75.47;100623.31;4941513;29;20052;-70
2023/01/29 08:33:16;;;;;;;2.75;0.52;;;;;;;1.13;75.20;100628.47;4939096;28;20043;-70
2023/01/29 08:35:43;;;;;;;3.10;0.50;;;;;;;1.13;75.89;100624.19;4937323;28;20052;-69
2023/01/29 08:38:10;;;;;;;2.05;0.90;;;;;;;1.15;75.57;100618.22;4940412;28;20035;-70
2023/01/29 08:40:37;;;;;;;4.15;0.40;;;;;;;1.16;75.27;100618.22;4944069;28;20402;-70
2023/01/29 08:43:07;;;;;;;6.38;2.03;;;;;;;1.17;75.48;100622.56;4940202;28;20504;-70
2023/01/29 08:45:35;;;;;;;2.72;0.60;;;;;;;1.18;75.63;100620.84;4944962;28;20050;-70
2023/01/29 08:48:02;;;;;;;2.53;0.60;;;;;;;1.17;75.22;100612.28;4940139;29;20048;-70
2023/01/29 08:50:30;;;;;;;4.93;0.60;;;;;;;1.20;75.35;100620.03;4941914;29;20047;-70
2023/01/29 08:52:58;;;;;;;7.75;0.40;;;;;;;1.22;75.39;100617.47;4934688;28;20055;-70
2023/01/29 08:55:26;;;;;;;4.88;0.80;;;;;;;1.24;75.46;100615.81;4936756;29;20524;-69
2023/01/29 08:57:52;;;;;;;1.83;0.50;;;;;;;1.25;75.57;100602.09;4938002;28;20052;-70
2023/01/29 09:00:21;;;;;;;4.20;1.05;;;;;;;1.26;75.91;100589.25;4940029;28;20048;-70
2023/01/29 09:02:48;;;;;;;2.42;0.40;;;;;;;1.27;75.87;100590.97;4939016;28;20047;-72
2023/01/29 09:05:15;;;;;;;3.08;0.40;;;;;;;1.30;75.66;100590.16;4938067;28;20058;-70
2023/01/29 09:07:42;;;;;;;3.25;0.47;;;;;;;1.31;75.84;100592.78;4938289;28;20040;-69
2023/01/29 09:10:11;;;;;;;3.38;0.57;;;;;;;1.33;75.87;100591.06;4941365;29;20059;-69
2023/01/29 09:12:37;;;;;;;4.93;0.77;;;;;;;1.35;76.03;100584.25;4939559;29;20077;-69
2023/01/29 09:15:05;;;;;;;1.67;0.35;;;;;;;1.38;75.66;100587.72;4940618;29;20055;-69
2023/01/29 09:17:33;;;;;;;4.55;0.40;;;;;;;1.38;75.42;100582.56;4939056;29;20043;-69
2023/01/29 09:20:00;;;;;;;1.15;0.40;;;;;;;1.40;75.99;100571.47;4936530;29;20049;-69
2023/01/29 09:22:27;;;;;;;4.35;0.60;;;;;;;1.37;75.35;100552.50;4939554;28;20048;-69
2023/01/29 09:24:54;;;;;;;1.02;0.45;;;;;;;1.44;75.85;100551.78;4939222;28;20044;-69
2023/01/29 09:27:20;;;;;;;3.80;1.40;;;;;;;1.45;75.77;100549.25;4939500;28;20051;-69
2023/01/29 09:29:47;;;;;;;3.03;0.40;;;;;;;1.47;75.39;100557.84;4936512;29;20516;-69
2023/01/29 09:32:14;;;;;;;3.85;0.35;;;;;;;1.48;75.19;100564.72;4940215;28;20058;-69
2023/01/29 09:34:42;;;;;;;2.05;0.30;;;;;;;1.51;75.14;100564.78;4939767;28;20046;-68
2023/01/29 09:37:09;;;;;;;5.25;0.40;;;;;;;1.54;75.93;100563.97;4939282;28;20043;-68
2023/01/29 09:39:36;;;;;;;4.55;0.40;;;;;;;1.54;75.58;100554.53;4940394;28;20051;-69
2023/01/29 09:42:10;;;;;;;6.35;0.50;;;;;;;1.56;75.78;100547.66;4939195;28;20045;-68
2023/01/29 09:45:02;;;;;;;2.83;0.40;;;;;;;1.58;75.42;100530.53;4937371;28;20053;-69
2023/01/29 09:47:33;;;;;;;3.38;0.43;;;;;;;1.60;75.35;100529.72;4940006;29;20412;-68
2023/01/29 09:50:06;;;;;;;7.53;1.40;;;;;;;1.62;75.70;100518.56;4937481;28;20047;-68
2023/01/29 09:52:37;;;;;;;3.45;0.40;;;;;;;1.64;76.09;100508.31;4937909;28;20063;-68
2023/01/29 09:55:10;;;;;;;5.53;0.45;;;;;;;1.66;75.51;100506.63;4935586;28;20492;-68
2023/01/29 09:57:46;;;;;;;5.32;1.23;;;;;;;1.69;75.77;100506.66;4940569;28;20055;-69
2023/01/29 10:00:16;;;;;;;5.35;0.60;;;;;;;1.71;75.57;100494.69;4938883;28;20082;-68
2023/01/29 10:03:09;;;;;;;2.85;0.30;;;;;;;1.72;75.24;100488.69;4937701;28;20397;-69
2023/01/29 10:05:50;;;;;;;5.70;0.75;;;;;;;1.74;75.15;100489.56;4937113;28;20052;-69
2023/01/29 10:08:39;;;;;;;5.60;0.73;;;;;;;1.76;75.77;100499.00;4934916;28;20044;-69
2023/01/29 10:11:17;;;;;;;2.45;0.60;;;;;;;1.77;75.04;100497.34;4935869;28;20047;-68
2023/01/29 10:13:52;;;;;;;4.72;0.82;;;;;;;1.79;75.22;100485.31;4940009;28;20051;-69
2023/01/29 10:16:36;;;;;;;8.00;0.85;;;;;;;1.80;75.51;100475.06;4936361;28;20457;-68
2023/01/29 10:19:18;;;;;;;6.50;0.50;;;;;;;1.83;75.30;100473.38;4937891;28;20089;-68
2023/01/29 10:22:11;;;;;;;4.00;0.40;;;;;;;1.85;75.65;100472.53;4936723;28;20060;-69
2023/01/29 10:24:41;;;;;;;3.67;0.40;;;;;;;1.86;75.30;100469.09;4937108;28;20102;-69
2023/01/29 10:27:14;;;;;;;4.47;0.30;;;;;;;1.88;74.93;100466.53;4937237;28;20048;-69
2023/01/29 10:29:43;;;;;;;3.97;0.50;;;;;;;1.89;75.30;100456.25;4940263;28;20589;-69
2023/01/29 10:32:15;;;;;;;4.95;0.47;;;;;;;1.90;75.00;100460.56;4939508;28;20054;-69
2023/01/29 10:34:48;;;;;;;6.63;0.45;;;;;;;1.93;75.36;100460.59;4938803;28;20048;-69
2023/01/29 10:37:20;;;;;;;3.05;0.70;;;;;;;1.94;75.58;100470.06;4939563;28;20895;-69
2023/01/29 10:39:47;;;;;;;6.53;0.40;;;;;;;1.94;75.05;100461.47;4938104;28;20107;-69
2023/01/29 10:42:21;;;;;;;8.65;0.60;;;;;;;1.99;75.10;100455.53;4938171;28;20043;-69
2023/01/29 10:45:02;;;;;;;5.75;1.30;;;;;;;2.00;75.18;100446.94;4941749;28;20043;-68
2023/01/29 10:48:05;;;;;;;3.33;0.30;;;;;;;2.03;75.15;100436.69;4935954;28;20086;-71
2023/01/29 10:50:44;;;;;;;5.65;0.50;;;;;;;2.05;75.17;100435.81;4927846;29;20047;-70
2023/01/29 10:53:43;;;;;;;1.90;0.30;;;;;;;2.08;75.60;100433.28;4936844;29;20051;-70
2023/01/29 10:56:24;;;;;;;2.78;0.90;;;;;;;2.10;75.19;100418.69;4936506;29;20700;-69
2023/01/29 10:58:54;;;;;;;9.05;0.70;;;;;;;2.12;75.14;100410.13;4937577;28;20505;-70
2023/01/29 11:01:21;;;;;;;3.03;0.75;;;;;;;2.14;74.81;100397.28;4936926;28;20055;-69
2023/01/29 11:03:56;;;;;;;7.00;0.70;;;;;;;2.08;75.28;100392.94;4934597;28;20051;-69
2023/01/29 11:06:28;;;;;;;3.40;0.40;;;;;;;2.19;75.60;100411.94;4939441;28;20051;-70
2023/01/29 11:09:03;;;;;;;8.23;0.52;;;;;;;2.21;75.02;100405.06;4938844;28;20054;-69
2023/01/29 11:11:36;;;;;;;4.50;0.47;;;;;;;2.23;75.66;100387.06;4939368;28;20073;-69
2023/01/29 11:14:07;;;;;;;7.53;0.50;;;;;;;2.25;75.12;100387.94;4938910;28;20295;-69
2023/01/29 11:16:42;;;;;;;4.03;0.40;;;;;;;2.28;75.03;100385.41;4937414;28;20075;-69
2023/01/29 11:19:09;;;;;;;10.50;1.00;;;;;;;2.29;75.27;100376.81;4946835;29;20048;-69
2023/01/29 11:21:53;;;;;;;3.47;0.40;;;;;;;2.32;75.43;100374.25;4940585;28;20398;-69
2023/01/29 11:24:21;;;;;;;2.75;0.40;;;;;;;2.32;75.17;100358.78;4944124;28;20051;-69
2023/01/29 11:26:50;;;;;;;7.80;0.40;;;;;;;2.33;75.00;100350.19;4944261;28;20047;-70
2023/01/29 11:29:37;;;;;;;4.00;0.40;;;;;;;2.38;75.22;100340.78;4946047;28;20049;-69
2023/01/29 11:32:07;;;;;;;2.70;0.40;;;;;;;2.39;75.20;100333.91;4942053;28;20812;-69
2023/01/29 11:34:34;;;;;;;4.30;0.40;;;;;;;2.40;74.89;100333.94;4943214;28;20051;-69
2023/01/29 11:37:02;;;;;;;2.17;0.30;;;;;;;2.44;74.98;100327.09;4941586;28;20054;-69
2023/01/29 11:39:32;;;;;;;4.63;0.52;;;;;;;2.44;74.79;100311.63;4943242;28;20051;-69
2023/01/29 11:42:02;;;;;;;4.45;0.40;;;;;;;2.47;75.10;100298.75;4942781;28;20977;-69
2023/01/29 11:44:31;;;;;;;3.50;0.52;;;;;;;2.50;74.81;100285.00;4945033;28;20047;-70
2023/01/29 11:47:11;;;;;;;9.70;0.60;;;;;;;2.51;74.76;100289.34;4940946;28;20072;-69
2023/01/29 11:49:40;;;;;;;6.90;0.60;;;;;;;2.52;74.47;100285.91;4943896;28;20055;-70
2023/01/29 11:52:10;;;;;;;5.90;0.50;;;;;;;2.54;74.78;100271.31;4942896;28;20057;-69
2023/01/29 11:54:44;;;;;;;15.13;0.73;;;;;;;2.55;74.99;100263.56;4944983;28;20065;-69
2023/01/29 11:57:24;;;;;;;2.13;0.30;;;;;;;2.58;75.19;100247.25;4936603;28;20058;-69
2023/01/29 11:59:53;;;;;;;7.00;0.52;;;;;;;2.58;74.50;100242.94;4944843;28;20062;-69
2023/01/29 12:02:26;;;;;;;6.70;0.63;;;;;;;2.60;74.94;100232.66;4940415;29;20126;-69
2023/01/29 12:04:56;;;;;;;3.53;0.40;;;;;;;2.60;74.65;100222.34;4942070;28;20417;-69
2023/01/29 12:07:23;;;;;;;8.25;0.30;;;;;;;2.63;75.18;100212.06;4941011;29;20554;-69
2023/01/29 12:09:54;;;;;;;1.73;0.40;;;;;;;2.63;74.64;100202.59;4942673;28;20062;-69
2023/01/29 12:12:30;;;;;;;4.57;1.15;;;;;;;2.66;74.88;100199.16;4944505;28;20051;-69
2023/01/29 12:15:17;;;;;;;3.92;0.22;;;;;;;2.67;74.48;100196.56;4940095;28;20047;-69